Amagi Galaxy — V7VE9 — position and weather

sailwx.info

Track history (hours):
 
Tides and Currents Weather Stations Pressure Air Temp Water Temp Dewpoint Dewpoint Depression Visibility Wind Speed Wind Dir Waves Ship Positions

Amagi Galaxy

Last reported at 2016-Jun-27 01:33 UTC. Time now 2016-Jun-27 02:27 UTC.
Position N 36°40' W 123°28'.

Length 152 m; draft 5.6 m.

Type: Ship (hazmat cat B). MMSI: 538004105.

Date/timePositionNaut miles runAvg speedWind from/ knotsBaromVisibWave heightAir tempDewpointWater temp
2016-Jun-27 01:33N 36°40' W 123°28'1010.2
2016-Jun-27 00:33N 36°31' W 123°22'9 9.1
2016-Jun-26 23:33N 36°23' W 123°17'9 9.1
2016-Jun-26 22:33N 36°14' W 123°12'9 8.8
2016-Jun-26 21:33N 36°06' W 123°07'9 8.9
2016-Jun-26 20:33N 35°59' W 123°02'9 8.8
2016-Jun-26 19:33N 35°51' W 122°57'9 9.3
2016-Jun-26 18:33N 35°42' W 122°52'9 9.4
2016-Jun-26 17:33N 35°34' W 122°47'9 9.4
2016-Jun-26 16:33N 35°25' W 122°42'10 9.5
2016-Jun-26 15:33N 35°17' W 122°37'1010.0
2016-Jun-26 14:33N 35°08' W 122°31'10 9.6
2016-Jun-26 13:33N 34°60' W 122°26'9 9.2
2016-Jun-26 12:33N 34°51' W 122°21'9 9.0
2016-Jun-26 11:33N 34°43' W 122°16'9 9.3
2016-Jun-26 10:33N 34°35' W 122°11'9 9.4
2016-Jun-26 09:33N 34°27' W 122°06'9 8.7
2016-Jun-26 08:33N 34°19' W 122°01'9 8.7
2016-Jun-26 07:33N 34°11' W 121°57'9 8.5
2016-Jun-26 06:33N 34°03' W 121°53'8 8.1
2016-Jun-26 05:33N 33°58' W 121°45'9 9.3
2016-Jun-26 04:33N 33°55' W 121°34'27 9.2
2016-Jun-26 01:33N 33°48' W 121°03'4110.1
2016-Jun-25 21:32N 33°37' W 120°15'6713.4
2016-Jun-25 16:34N 33°42' W 118°56'11 8.6
2016-Jun-25 15:16N 33°39' W 118°43'7 9.8
2016-Jun-25 14:31N 33°37' W 118°34'1411.2
2016-Jun-25 13:16N 33°35' W 118°18'710.2
2016-Jun-25 12:34N 33°40' W 118°12'4 4.2
2016-Jun-25 11:31N 33°44' W 118°13'0 0.1
2016-Jun-25 10:31N 33°44' W 118°13'0 0.0
2016-Jun-25 09:31N 33°44' W 118°13'0 0.1
2016-Jun-25 08:32N 33°44' W 118°13'0 0.0
2016-Jun-25 07:31N 33°44' W 118°13'0 0.1
2016-Jun-25 06:31N 33°44' W 118°13'0 0.1
2016-Jun-25 05:33N 33°44' W 118°13'0 0.1
2016-Jun-25 04:33N 33°44' W 118°13'1 0.6
2016-Jun-25 03:33N 33°45' W 118°13'0 0.0
2016-Jun-25 02:31N 33°45' W 118°13'0 0.0
2016-Jun-25 01:28N 33°45' W 118°13'0 0.0
2016-Jun-25 00:31N 33°45' W 118°13'0 0.0
2016-Jun-24 23:31N 33°45' W 118°13'0 0.0
2016-Jun-24 22:31N 33°45' W 118°13'0 0.0
2016-Jun-24 21:31N 33°45' W 118°13'0 0.0
2016-Jun-24 20:31N 33°45' W 118°13'0 0.0
2016-Jun-24 19:31N 33°45' W 118°13'0 0.0
2016-Jun-24 18:31N 33°45' W 118°13'0 0.0
2016-Jun-24 17:28N 33°45' W 118°13'0 0.0
2016-Jun-24 16:31N 33°45' W 118°13'0 0.0
2016-Jun-24 15:31N 33°45' W 118°13'0 0.0
2016-Jun-24 14:31N 33°45' W 118°13'0 0.0
2016-Jun-24 13:33N 33°45' W 118°13'2 1.5
2016-Jun-24 12:32N 33°44' W 118°14'0 0.1
2016-Jun-24 11:32N 33°44' W 118°14'0 0.0
2016-Jun-24 10:32N 33°44' W 118°14'0 0.0
2016-Jun-24 09:32N 33°44' W 118°14'2 2.5
2016-Jun-24 08:33N 33°44' W 118°17'1 1.3
2016-Jun-24 07:32N 33°46' W 118°16'0 0.0
2016-Jun-24 04:32N 33°46' W 118°16'0 0.0
2016-Jun-24 03:32N 33°46' W 118°16'0 0.0
2016-Jun-24 02:32N 33°46' W 118°16'0 0.0
2016-Jun-24 01:32N 33°46' W 118°16'0 0.0
2016-Jun-24 00:32N 33°46' W 118°16'0 0.0
2016-Jun-23 23:32N 33°46' W 118°16'0 0.0
2016-Jun-23 22:32N 33°46' W 118°16'0 0.0
2016-Jun-23 21:32N 33°46' W 118°16'0 0.0
2016-Jun-23 20:29N 33°46' W 118°16'0 0.0
2016-Jun-23 19:33N 33°46' W 118°16'0 0.0
2016-Jun-23 18:32N 33°46' W 118°16'0 0.0
2016-Jun-23 17:32N 33°46' W 118°16'0 0.0
2016-Jun-23 16:32N 33°46' W 118°16'0 0.0
2016-Jun-23 15:32N 33°46' W 118°16'0 0.0
2016-Jun-23 14:32N 33°46' W 118°16'1 0.7
2016-Jun-23 13:33N 33°45' W 118°16'3 2.4
2016-Jun-23 12:31N 33°44' W 118°14'0 0.1
2016-Jun-23 11:31N 33°44' W 118°14'0 0.1
2016-Jun-23 10:31N 33°44' W 118°14'0 0.0
2016-Jun-23 09:31N 33°44' W 118°14'0 0.0
2016-Jun-23 08:31N 33°44' W 118°14'0 0.0
2016-Jun-23 07:31N 33°44' W 118°14'0 0.0
2016-Jun-23 05:31N 33°44' W 118°14'0 0.0
2016-Jun-23 04:31N 33°44' W 118°14'0 0.0
2016-Jun-23 03:28N 33°44' W 118°14'0 0.0
2016-Jun-23 02:31N 33°44' W 118°14'0 0.0
2016-Jun-23 01:31N 33°44' W 118°14'0 0.0
2016-Jun-23 00:31N 33°44' W 118°14'0 0.0
2016-Jun-22 23:31N 33°44' W 118°14'0 0.0
2016-Jun-22 22:31N 33°44' W 118°14'1 0.9
2016-Jun-22 21:33N 33°43' W 118°14'3 2.9
2016-Jun-22 20:33N 33°46' W 118°15'0 0.2
2016-Jun-22 19:33N 33°46' W 118°14'0 0.0
2016-Jun-22 18:33N 33°46' W 118°14'0 0.0
2016-Jun-22 17:33N 33°46' W 118°14'0 0.0
2016-Jun-22 16:33N 33°46' W 118°14'0 0.0
2016-Jun-22 15:33N 33°46' W 118°14'0 0.0
2016-Jun-22 14:33N 33°46' W 118°14'0 0.0
2016-Jun-22 13:33N 33°46' W 118°14'0 0.0
2016-Jun-22 12:33N 33°46' W 118°14'0 0.0
2016-Jun-22 11:33N 33°46' W 118°14'0 0.0
2016-Jun-22 10:33N 33°46' W 118°14'0 0.0
2016-Jun-22 09:33N 33°46' W 118°14'0 0.0
2016-Jun-22 08:33N 33°46' W 118°14'0 0.0
2016-Jun-22 07:33N 33°46' W 118°14'0 0.0
2016-Jun-22 06:33N 33°46' W 118°14'0 0.0
2016-Jun-22 05:33N 33°46' W 118°14'1 1.1
2016-Jun-22 04:33N 33°45' W 118°16'6 6.2
2016-Jun-22 03:33N 33°40' W 118°13'5 5.4
2016-Jun-22 02:33N 33°35' W 118°17'6 6.5
2016-Jun-22 01:33N 33°35' W 118°25'7 6.6
2016-Jun-22 00:33N 33°35' W 118°33'4 4.4
2016-Jun-21 23:33N 33°36' W 118°38'9511.9
2016-Jun-21 15:33N 33°48' W 120°31'1212.1
2016-Jun-21 14:33N 33°49' W 120°46'1212.2
2016-Jun-21 13:33N 33°50' W 121°00'1312.9
2016-Jun-21 12:33N 33°53' W 121°15'1313.3
2016-Jun-21 11:33N 33°56' W 121°31'1313.0
2016-Jun-21 10:33N 33°59' W 121°46'1312.7
2016-Jun-21 09:33N 34°09' W 121°56'1413.7
2016-Jun-21 08:33N 34°21' W 122°03'1313.3
2016-Jun-21 07:33N 34°33' W 122°10'2613.1
2016-Jun-21 05:33N 34°57' W 122°25'1312.8
2016-Jun-21 04:33N 35°08' W 122°32'1312.6
2016-Jun-21 03:33N 35°19' W 122°38'1312.8
2016-Jun-21 02:33N 35°31' W 122°46'1313.3
2016-Jun-21 01:33N 35°43' W 122°53'1313.5
2016-Jun-21 00:33N 35°55' W 123°01'1413.8
2016-Jun-20 23:33N 36°07' W 123°09'1312.9
2016-Jun-20 22:33N 36°19' W 123°15'1313.1
2016-Jun-20 21:33N 36°30' W 123°22'1313.2
2016-Jun-20 20:33N 36°42' W 123°30'1313.2
2016-Jun-20 19:33N 36°54' W 123°37'1212.1
2016-Jun-20 18:32N 37°06' W 123°37'1413.4
2016-Jun-20 17:29N 37°19' W 123°29'1212.4
2016-Jun-20 16:33N 37°26' W 123°18'1312.7
2016-Jun-20 15:33N 37°33' W 123°05'1312.7
2016-Jun-20 14:34N 37°41' W 122°52'1110.7
2016-Jun-20 13:33N 37°46' W 122°40'1313.3
2016-Jun-20 12:33N 37°52' W 122°25'4 3.9
2016-Jun-20 11:33N 37°55' W 122°22'0 0.0
2016-Jun-19 21:31N 37°55' W 122°22'1 0.0
2016-Jun-19 00:33N 37°54' W 122°22'5 5.3
2016-Jun-18 23:33N 37°50' W 122°27'1111.2
2016-Jun-18 22:34N 37°45' W 122°39'6 5.9
2016-Jun-18 21:33N 37°42' W 122°45'1010.5
2016-Jun-18 20:33N 37°36' W 122°56'1211.8
2016-Jun-18 19:33N 37°32' W 123°10'1413.6
2016-Jun-18 18:33N 37°35' W 123°27'1313.3
2016-Jun-18 17:34N 37°37' W 123°43'1413.3
2016-Jun-18 16:29N 37°40' W 124°01'1413.2
2016-Jun-18 15:26N 37°43' W 124°18'  
Track history (hours):
 
Tides and Currents Weather Stations Pressure Air Temp Water Temp Dewpoint Dewpoint Depression Visibility Wind Speed Wind Dir Waves Ship Positions

Amagi Galaxy

Last reported at 2016-Jun-27 01:33 UTC. Time now 2016-Jun-27 02:27 UTC.
Position N 36°40' W 123°28'.

Length 152 m; draft 5.6 m.

Type: Ship (hazmat cat B). MMSI: 538004105.

Date/timePositionNaut miles runAvg speedWind from/ knotsBaromVisibWave heightAir tempDewpointWater temp
2016-Jun-27 01:33N 36°40' W 123°28'1010.2
2016-Jun-27 00:33N 36°31' W 123°22'9 9.1
2016-Jun-26 23:33N 36°23' W 123°17'9 9.1
2016-Jun-26 22:33N 36°14' W 123°12'9 8.8
2016-Jun-26 21:33N 36°06' W 123°07'9 8.9
2016-Jun-26 20:33N 35°59' W 123°02'9 8.8
2016-Jun-26 19:33N 35°51' W 122°57'9 9.3
2016-Jun-26 18:33N 35°42' W 122°52'9 9.4
2016-Jun-26 17:33N 35°34' W 122°47'9 9.4
2016-Jun-26 16:33N 35°25' W 122°42'10 9.5
2016-Jun-26 15:33N 35°17' W 122°37'1010.0
2016-Jun-26 14:33N 35°08' W 122°31'10 9.6
2016-Jun-26 13:33N 34°60' W 122°26'9 9.2
2016-Jun-26 12:33N 34°51' W 122°21'9 9.0
2016-Jun-26 11:33N 34°43' W 122°16'9 9.3
2016-Jun-26 10:33N 34°35' W 122°11'9 9.4
2016-Jun-26 09:33N 34°27' W 122°06'9 8.7
2016-Jun-26 08:33N 34°19' W 122°01'9 8.7
2016-Jun-26 07:33N 34°11' W 121°57'9 8.5
2016-Jun-26 06:33N 34°03' W 121°53'8 8.1
2016-Jun-26 05:33N 33°58' W 121°45'9 9.3
2016-Jun-26 04:33N 33°55' W 121°34'27 9.2
2016-Jun-26 01:33N 33°48' W 121°03'4110.1
2016-Jun-25 21:32N 33°37' W 120°15'6713.4
2016-Jun-25 16:34N 33°42' W 118°56'11 8.6
2016-Jun-25 15:16N 33°39' W 118°43'7 9.8
2016-Jun-25 14:31N 33°37' W 118°34'1411.2
2016-Jun-25 13:16N 33°35' W 118°18'710.2
2016-Jun-25 12:34N 33°40' W 118°12'4 4.2
2016-Jun-25 11:31N 33°44' W 118°13'0 0.1
2016-Jun-25 10:31N 33°44' W 118°13'0 0.0
2016-Jun-25 09:31N 33°44' W 118°13'0 0.1
2016-Jun-25 08:32N 33°44' W 118°13'0 0.0
2016-Jun-25 07:31N 33°44' W 118°13'0 0.1
2016-Jun-25 06:31N 33°44' W 118°13'0 0.1
2016-Jun-25 05:33N 33°44' W 118°13'0 0.1
2016-Jun-25 04:33N 33°44' W 118°13'1 0.6
2016-Jun-25 03:33N 33°45' W 118°13'0 0.0
2016-Jun-25 02:31N 33°45' W 118°13'0 0.0
2016-Jun-25 01:28N 33°45' W 118°13'0 0.0
2016-Jun-25 00:31N 33°45' W 118°13'0 0.0
2016-Jun-24 23:31N 33°45' W 118°13'0 0.0
2016-Jun-24 22:31N 33°45' W 118°13'0 0.0
2016-Jun-24 21:31N 33°45' W 118°13'0 0.0
2016-Jun-24 20:31N 33°45' W 118°13'0 0.0
2016-Jun-24 19:31N 33°45' W 118°13'0 0.0
2016-Jun-24 18:31N 33°45' W 118°13'0 0.0
2016-Jun-24 17:28N 33°45' W 118°13'0 0.0
2016-Jun-24 16:31N 33°45' W 118°13'0 0.0
2016-Jun-24 15:31N 33°45' W 118°13'0 0.0
2016-Jun-24 14:31N 33°45' W 118°13'0 0.0
2016-Jun-24 13:33N 33°45' W 118°13'2 1.5
2016-Jun-24 12:32N 33°44' W 118°14'0 0.1
2016-Jun-24 11:32N 33°44' W 118°14'0 0.0
2016-Jun-24 10:32N 33°44' W 118°14'0 0.0
2016-Jun-24 09:32N 33°44' W 118°14'2 2.5
2016-Jun-24 08:33N 33°44' W 118°17'1 1.3
2016-Jun-24 07:32N 33°46' W 118°16'0 0.0
2016-Jun-24 04:32N 33°46' W 118°16'0 0.0
2016-Jun-24 03:32N 33°46' W 118°16'0 0.0
2016-Jun-24 02:32N 33°46' W 118°16'0 0.0
2016-Jun-24 01:32N 33°46' W 118°16'0 0.0
2016-Jun-24 00:32N 33°46' W 118°16'0 0.0
2016-Jun-23 23:32N 33°46' W 118°16'0 0.0
2016-Jun-23 22:32N 33°46' W 118°16'0 0.0
2016-Jun-23 21:32N 33°46' W 118°16'0 0.0
2016-Jun-23 20:29N 33°46' W 118°16'0 0.0
2016-Jun-23 19:33N 33°46' W 118°16'0 0.0
2016-Jun-23 18:32N 33°46' W 118°16'0 0.0
2016-Jun-23 17:32N 33°46' W 118°16'0 0.0
2016-Jun-23 16:32N 33°46' W 118°16'0 0.0
2016-Jun-23 15:32N 33°46' W 118°16'0 0.0
2016-Jun-23 14:32N 33°46' W 118°16'1 0.7
2016-Jun-23 13:33N 33°45' W 118°16'3 2.4
2016-Jun-23 12:31N 33°44' W 118°14'0 0.1
2016-Jun-23 11:31N 33°44' W 118°14'0 0.1
2016-Jun-23 10:31N 33°44' W 118°14'0 0.0
2016-Jun-23 09:31N 33°44' W 118°14'0 0.0
2016-Jun-23 08:31N 33°44' W 118°14'0 0.0
2016-Jun-23 07:31N 33°44' W 118°14'0 0.0
2016-Jun-23 05:31N 33°44' W 118°14'0 0.0
2016-Jun-23 04:31N 33°44' W 118°14'0 0.0
2016-Jun-23 03:28N 33°44' W 118°14'0 0.0
2016-Jun-23 02:31N 33°44' W 118°14'0 0.0
2016-Jun-23 01:31N 33°44' W 118°14'0 0.0
2016-Jun-23 00:31N 33°44' W 118°14'0 0.0
2016-Jun-22 23:31N 33°44' W 118°14'0 0.0
2016-Jun-22 22:31N 33°44' W 118°14'1 0.9
2016-Jun-22 21:33N 33°43' W 118°14'3 2.9
2016-Jun-22 20:33N 33°46' W 118°15'0 0.2
2016-Jun-22 19:33N 33°46' W 118°14'0 0.0
2016-Jun-22 18:33N 33°46' W 118°14'0 0.0
2016-Jun-22 17:33N 33°46' W 118°14'0 0.0
2016-Jun-22 16:33N 33°46' W 118°14'0 0.0
2016-Jun-22 15:33N 33°46' W 118°14'0 0.0
2016-Jun-22 14:33N 33°46' W 118°14'0 0.0
2016-Jun-22 13:33N 33°46' W 118°14'0 0.0
2016-Jun-22 12:33N 33°46' W 118°14'0 0.0
2016-Jun-22 11:33N 33°46' W 118°14'0 0.0
2016-Jun-22 10:33N 33°46' W 118°14'0 0.0
2016-Jun-22 09:33N 33°46' W 118°14'0 0.0
2016-Jun-22 08:33N 33°46' W 118°14'0 0.0
2016-Jun-22 07:33N 33°46' W 118°14'0 0.0
2016-Jun-22 06:33N 33°46' W 118°14'0 0.0
2016-Jun-22 05:33N 33°46' W 118°14'1 1.1
2016-Jun-22 04:33N 33°45' W 118°16'6 6.2
2016-Jun-22 03:33N 33°40' W 118°13'5 5.4
2016-Jun-22 02:33N 33°35' W 118°17'6 6.5
2016-Jun-22 01:33N 33°35' W 118°25'7 6.6
2016-Jun-22 00:33N 33°35' W 118°33'4 4.4
2016-Jun-21 23:33N 33°36' W 118°38'9511.9
2016-Jun-21 15:33N 33°48' W 120°31'1212.1
2016-Jun-21 14:33N 33°49' W 120°46'1212.2
2016-Jun-21 13:33N 33°50' W 121°00'1312.9
2016-Jun-21 12:33N 33°53' W 121°15'1313.3
2016-Jun-21 11:33N 33°56' W 121°31'1313.0
2016-Jun-21 10:33N 33°59' W 121°46'1312.7
2016-Jun-21 09:33N 34°09' W 121°56'1413.7
2016-Jun-21 08:33N 34°21' W 122°03'1313.3
2016-Jun-21 07:33N 34°33' W 122°10'2613.1
2016-Jun-21 05:33N 34°57' W 122°25'1312.8
2016-Jun-21 04:33N 35°08' W 122°32'1312.6
2016-Jun-21 03:33N 35°19' W 122°38'1312.8
2016-Jun-21 02:33N 35°31' W 122°46'1313.3
2016-Jun-21 01:33N 35°43' W 122°53'1313.5
2016-Jun-21 00:33N 35°55' W 123°01'1413.8
2016-Jun-20 23:33N 36°07' W 123°09'1312.9
2016-Jun-20 22:33N 36°19' W 123°15'1313.1
2016-Jun-20 21:33N 36°30' W 123°22'1313.2
2016-Jun-20 20:33N 36°42' W 123°30'1313.2
2016-Jun-20 19:33N 36°54' W 123°37'1212.1
2016-Jun-20 18:32N 37°06' W 123°37'1413.4
2016-Jun-20 17:29N 37°19' W 123°29'1212.4
2016-Jun-20 16:33N 37°26' W 123°18'1312.7
2016-Jun-20 15:33N 37°33' W 123°05'1312.7
2016-Jun-20 14:34N 37°41' W 122°52'1110.7
2016-Jun-20 13:33N 37°46' W 122°40'1313.3
2016-Jun-20 12:33N 37°52' W 122°25'4 3.9
2016-Jun-20 11:33N 37°55' W 122°22'0 0.0
2016-Jun-19 21:31N 37°55' W 122°22'1 0.0
2016-Jun-19 00:33N 37°54' W 122°22'5 5.3
2016-Jun-18 23:33N 37°50' W 122°27'1111.2
2016-Jun-18 22:34N 37°45' W 122°39'6 5.9
2016-Jun-18 21:33N 37°42' W 122°45'1010.5
2016-Jun-18 20:33N 37°36' W 122°56'1211.8
2016-Jun-18 19:33N 37°32' W 123°10'1413.6
2016-Jun-18 18:33N 37°35' W 123°27'1313.3
2016-Jun-18 17:34N 37°37' W 123°43'1413.3
2016-Jun-18 16:29N 37°40' W 124°01'1413.2
2016-Jun-18 15:26N 37°43' W 124°18'  

Dump ship's entire track history